Hannibal, WI (54439)

3:11 PM CST on February 14, 2016 (GMT -0600)
N Gilman Dr | | Change Station
CLOSE
Current Station
Personal Weather Station
Location: Gilman, WI
Elevation: 1237 ft
Nearby Weather Stations

Elev 1237 ft 45.17 °N, 90.82 °W | Updated 1 minute ago

Overcast
Overcast
15.2 °F
Feels Like 2 °F
N
11.0
Wind Variable Wind from SE
Gusts 18.0 mph

Today
High -- | Low -- °F
--% Chance of Precip.
Yesterday
High -- | Low -- °F
Precip. -- in
Pressure 29.99 in
Visibility 10.0 miles
Clouds Scattered Clouds 2600 ft
Scattered Clouds 3300 ft
Mostly Cloudy 4600 ft
Windchill 2 °F
Dew Point 8 °F
Humidity 74%
Rainfall 0.00 in
Snow Depth Not available.
7:06 AM 5:28 PM
Waxing Crescent, 45% visible
METAR KRCX 142055Z AUTO 16010G16KT 10SM -SN SCT026 SCT033 BKN046 M07/M14 A2999 RMK AO2 T10701136
Pressure 29.99 in
Visibility 10.0 miles
Clouds Scattered Clouds 2600 ft
Scattered Clouds 3300 ft
Mostly Cloudy 4600 ft
Windchill 2 °F
Dew Point 8 °F
Humidity 74%
Rainfall 0.00 in
Snow Depth Not available.
7:06 AM 5:28 PM
Waxing Crescent, 45% visible
METAR KRCX 142055Z AUTO 16010G16KT 10SM -SN SCT026 SCT033 BKN046 M07/M14 A2999 RMK AO2 T10701136

10-Day Weather Forecast

Almanac

Astronomy

Feb. 14, 2016 Rise Set
Actual Time
Civil Twilight
Nautical Twilight
Astronomical Twilight
Moon
Length of Visible Light
Length of Day
Tomorrow will be .
, % of the Moon is Illuminated

Today's Extremes

State Highs State Lows

Community

WunderPhotos

Upload Photos

1,892,886 photos uploaded!

WunderBlog® & News

Nearby

Air Quality

  Air Quality AQ Index Pollutant
Not available.

Snow Depth

Station Depth Elevation

Earthquake Activity

City Distance Mag. Time & Date
Minimum magnitude displayed is 2.5.

Coastal Water Temperatures

Place Temperature

Stations

Nearby Weather Stations

Station Location Temp. Windchill Dew Point Humidity Wind Precip. Elev Updated Type
                   

Watches & Warnings

There are currently no watches in effect.